Terminal Aerodrome Forecast
Issued by NWS Sterling, VA

Current Version | Previous Version | Text Only | Print | Product List | Glossary On
Versions: 1 2 3 4 5 6 7 8 9 10 11 12 13 14 15 16 17 18 19 20 21 22 23 24 25 26 27 28
000
FTUS41 KLWX 262300
TAFIAD
TAF
KIAD 262336Z 2700/2806 33007KT P6SM SCT010 BKN060 OVC100
     FM270200 30004KT P6SM OVC060
     FM270600 VRB03KT 3SM BR OVC050
     FM271100 00000KT P6SM OVC050
     FM272000 31007KT P6SM BKN050=

USA.gov is the U.S. government's official web portal to all federal, state and local government web resources and services.